Time;durP1;ratioP1;P1;durP2;ratioP2;P2;SDS_P1;SDS_P2;PMS_P1;PMS_P2;Temp;Humidity;BMP_temperature;BMP_pressure;BME280_temperature;BME280_humidity;BME280_pressure;Samples;Min_cycle;Max_cycle;Signal;HPM_P1;HPM_P2
2022/03/07 00:01:35;;;;;;;4.07;1.50;;;;;;;-0.17;55.00;99112.78;5033658;28;20144;-79
2022/03/07 00:04:02;;;;;;;3.65;1.63;;;;;;;-0.07;54.87;99122.53;5033367;28;20053;-78
2022/03/07 00:06:29;;;;;;;3.40;1.52;;;;;;;-0.11;55.14;99097.56;5032301;28;20191;-79
2022/03/07 00:08:58;;;;;;;3.15;1.83;;;;;;;-0.03;54.90;99119.25;5032586;28;20072;-79
2022/03/07 00:11:25;;;;;;;4.07;1.70;;;;;;;0.03;54.88;99108.31;5036098;28;20050;-79
2022/03/07 00:13:52;;;;;;;3.70;2.00;;;;;;;0.04;55.40;99110.94;5036521;28;20080;-78
2022/03/07 00:16:19;;;;;;;3.50;1.77;;;;;;;0.02;55.45;99109.13;5032163;28;20057;-79
2022/03/07 00:18:46;;;;;;;3.45;1.50;;;;;;;0.07;55.18;99116.19;5032292;28;20103;-79
2022/03/07 00:21:13;;;;;;;3.08;1.60;;;;;;;0.09;55.37;99121.38;5032382;28;20205;-80
2022/03/07 00:23:40;;;;;;;3.63;1.65;;;;;;;-0.28;55.44;99066.19;5032387;28;20562;-78
2022/03/07 00:26:07;;;;;;;2.65;1.83;;;;;;;0.13;55.22;99120.63;5032214;28;20092;-80
2022/03/07 00:28:34;;;;;;;3.65;2.67;;;;;;;0.09;55.18;99096.56;5032000;28;20351;-80
2022/03/07 00:31:07;;;;;;;3.03;1.75;;;;;;;0.19;55.68;99108.88;5031942;28;20064;-78
2022/03/07 00:33:34;;;;;;;2.45;1.40;;;;;;;0.25;55.27;99104.75;5032596;28;20057;-80
2022/03/07 00:36:03;;;;;;;5.05;2.25;;;;;;;0.17;55.15;99081.38;5036253;28;20148;-79
2022/03/07 00:38:30;;;;;;;3.08;1.83;;;;;;;0.29;55.05;99109.19;5036741;28;20112;-79
2022/03/07 00:40:58;;;;;;;4.28;1.77;;;;;;;0.33;55.37;99104.19;5037506;28;20056;-78
2022/03/07 00:43:25;;;;;;;7.05;2.20;;;;;;;0.31;55.02;99110.97;5042391;28;20053;-78
2022/03/07 00:45:53;;;;;;;3.33;1.45;;;;;;;0.37;55.26;99092.31;5047879;28;20044;-79
2022/03/07 00:48:20;;;;;;;2.08;1.50;;;;;;;0.39;55.01;99090.66;5046915;28;20092;-79
2022/03/07 00:50:49;;;;;;;2.28;1.40;;;;;;;0.38;55.26;99094.91;5071026;28;20064;-79
2022/03/07 00:53:19;;;;;;;1.92;1.65;;;;;;;0.35;55.18;99087.13;5036677;28;20432;-79
2022/03/07 00:55:46;;;;;;;5.43;1.95;;;;;;;0.42;55.36;99093.31;5034931;28;20052;-80
2022/03/07 00:58:14;;;;;;;2.42;1.80;;;;;;;0.43;55.70;99091.63;5038252;28;20429;-79
2022/03/07 01:00:42;;;;;;;3.45;1.88;;;;;;;0.37;55.47;99084.59;5046271;28;20528;-79
2022/03/07 01:03:11;;;;;;;4.28;1.95;;;;;;;0.41;55.40;99089.03;5038245;28;20053;-79
2022/03/07 01:05:41;;;;;;;3.47;1.70;;;;;;;0.30;55.89;99082.66;5036419;28;20088;-79
2022/03/07 01:08:08;;;;;;;3.55;2.20;;;;;;;0.35;55.78;99083.69;5036574;28;20069;-80
2022/03/07 01:10:37;;;;;;;4.70;1.98;;;;;;;0.34;55.86;99105.03;5039637;28;20128;-78
2022/03/07 01:13:04;;;;;;;4.50;1.83;;;;;;;0.32;55.93;99081.00;5055202;28;20060;-79
2022/03/07 01:15:31;;;;;;;2.53;1.70;;;;;;;0.22;55.90;99073.84;5032463;28;20072;-78
2022/03/07 01:18:03;;;;;;;3.90;2.03;;;;;;;0.26;56.04;99078.22;5052519;28;20050;-79
2022/03/07 01:20:31;;;;;;;4.18;1.80;;;;;;;0.16;56.06;99083.09;5045137;28;20156;-80
2022/03/07 01:22:58;;;;;;;2.72;1.80;;;;;;;0.15;56.43;99080.47;5086650;28;20103;-80
2022/03/07 01:25:25;;;;;;;3.05;1.70;;;;;;;0.12;56.57;99082.94;5055751;28;20053;-80
2022/03/07 01:27:52;;;;;;;3.63;2.17;;;;;;;0.10;56.35;99080.31;5037442;28;20083;-81
2022/03/07 01:30:21;;;;;;;4.65;1.98;;;;;;;0.13;56.62;99076.97;5055609;28;20060;-81
2022/03/07 01:32:48;;;;;;;3.50;2.00;;;;;;;0.12;56.41;99070.09;5055753;28;20080;-81
2022/03/07 01:35:15;;;;;;;3.28;2.00;;;;;;;0.05;56.29;99040.78;5055471;28;20064;-81
2022/03/07 01:37:42;;;;;;;2.42;1.98;;;;;;;0.13;56.38;99047.03;5037851;28;20052;-79
2022/03/07 01:40:09;;;;;;;2.63;1.83;;;;;;;0.28;56.40;99074.91;5055989;28;20044;-80
2022/03/07 01:42:37;;;;;;;1.80;1.70;;;;;;;0.30;56.21;99080.09;5056581;28;20060;-80
2022/03/07 01:45:13;;;;;;;3.03;1.83;;;;;;;0.25;56.61;99076.50;5054726;28;20060;-80
2022/03/07 01:47:40;;;;;;;3.90;2.03;;;;;;;0.12;56.09;99037.56;5054256;28;20067;-80
2022/03/07 01:50:10;;;;;;;3.22;1.92;;;;;;;0.28;56.11;99066.31;5055128;28;20654;-80
2022/03/07 01:52:41;;;;;;;3.13;2.00;;;;;;;0.36;56.46;99080.28;5055075;28;20566;-80
2022/03/07 01:55:11;;;;;;;3.75;1.90;;;;;;;0.14;56.18;99029.94;5055227;28;20053;-80
2022/03/07 01:57:47;;;;;;;6.10;2.35;;;;;;;0.19;56.42;99049.81;5054647;28;20059;-80
2022/03/07 02:00:26;;;;;;;4.60;2.20;;;;;;;0.13;56.81;99054.75;5054297;28;20053;-79
2022/03/07 02:02:56;;;;;;;7.15;2.35;;;;;;;0.13;56.81;99079.53;5055121;28;20149;-79
2022/03/07 02:05:47;;;;;;;2.97;1.98;;;;;;;-0.37;57.30;99001.75;5053911;28;20053;-78
2022/03/07 02:08:19;;;;;;;4.18;1.92;;;;;;;-0.04;57.17;99061.91;5053485;28;20110;-79
2022/03/07 02:10:53;;;;;;;3.58;2.20;;;;;;;-0.11;57.29;99059.06;5053557;28;20056;-78
2022/03/07 02:13:21;;;;;;;8.27;3.13;;;;;;;-0.01;57.56;99073.97;5054793;28;20089;-78
2022/03/07 02:15:56;;;;;;;2.78;2.00;;;;;;;-0.04;57.26;99069.59;5053838;28;20106;-79
2022/03/07 02:18:29;;;;;;;3.92;2.08;;;;;;;0.07;57.20;99079.38;5054943;28;20060;-79
2022/03/07 02:21:16;;;;;;;4.47;2.17;;;;;;;0.10;56.80;99084.59;5053906;28;20114;-78
2022/03/07 02:24:01;;;;;;;4.10;2.20;;;;;;;0.05;56.62;99074.16;5053345;28;20049;-80
2022/03/07 02:26:28;;;;;;;3.67;2.20;;;;;;;0.07;56.93;99072.53;5053832;28;20114;-77
2022/03/07 02:28:56;;;;;;;5.78;2.20;;;;;;;0.06;57.70;99073.31;5053030;28;20056;-79
2022/03/07 02:31:29;;;;;;;3.35;2.30;;;;;;;0.13;57.01;99080.44;5053082;28;20067;-79
2022/03/07 02:33:58;;;;;;;4.93;2.88;;;;;;;-0.28;57.02;99010.63;5053365;28;20056;-79
2022/03/07 02:36:25;;;;;;;2.78;2.30;;;;;;;0.20;57.41;99078.94;5053902;28;20048;-79
2022/03/07 02:38:53;;;;;;;3.67;2.47;;;;;;;0.18;57.21;99089.16;5053580;28;20052;-78
2022/03/07 02:41:20;;;;;;;2.78;2.03;;;;;;;0.16;57.14;99084.78;5054878;28;20057;-80
2022/03/07 02:43:49;;;;;;;3.05;2.20;;;;;;;0.15;57.57;99086.50;5054253;28;20053;-79
2022/03/07 02:46:16;;;;;;;4.55;2.47;;;;;;;0.09;57.63;99070.00;5053361;28;20527;-78
2022/03/07 02:48:43;;;;;;;7.38;2.25;;;;;;;0.11;57.96;99082.06;5054973;28;20059;-78
2022/03/07 02:51:10;;;;;;;5.13;2.28;;;;;;;0.08;58.12;99091.38;5053415;28;20543;-81
2022/03/07 02:53:37;;;;;;;3.10;1.73;;;;;;;0.06;57.92;99075.91;5055047;28;20513;-79
2022/03/07 02:56:04;;;;;;;2.88;2.10;;;;;;;0.04;58.31;99080.09;5054533;28;20099;-79
2022/03/07 02:58:31;;;;;;;2.60;2.00;;;;;;;0.05;58.24;99089.56;5054563;28;20115;-78
2022/03/07 03:00:58;;;;;;;3.63;2.28;;;;;;;0.08;58.07;99097.38;5053739;28;20083;-79
2022/03/07 03:03:25;;;;;;;4.13;1.98;;;;;;;0.04;58.36;99080.09;5054451;28;20052;-79
2022/03/07 03:05:54;;;;;;;5.97;2.13;;;;;;;0.10;58.40;99094.84;5051984;28;20075;-79
2022/03/07 03:08:22;;;;;;;5.47;2.47;;;;;;;0.12;58.21;99104.34;5041255;28;20049;-79
2022/03/07 03:10:53;;;;;;;6.28;2.53;;;;;;;0.10;57.97;99108.56;5053437;28;20053;-80
2022/03/07 03:13:22;;;;;;;5.53;2.55;;;;;;;0.09;58.00;99100.84;5041216;28;20099;-79
2022/03/07 03:15:52;;;;;;;5.03;2.70;;;;;;;-0.04;58.22;99076.44;5033414;28;20119;-80
2022/03/07 03:18:19;;;;;;;7.35;2.78;;;;;;;0.01;58.30;99086.88;5034310;28;20057;-81
2022/03/07 03:20:48;;;;;;;4.03;2.47;;;;;;;-0.08;58.38;99064.31;5053789;28;20053;-80
2022/03/07 03:23:16;;;;;;;5.05;2.65;;;;;;;-0.01;58.30;99097.94;5053543;28;20063;-79
2022/03/07 03:25:43;;;;;;;3.20;2.08;;;;;;;-0.05;58.70;99090.94;5053269;28;20053;-78
2022/03/07 03:28:12;;;;;;;5.57;2.88;;;;;;;-0.04;58.59;99082.44;5053123;28;20049;-79
2022/03/07 03:30:39;;;;;;;6.00;2.75;;;;;;;-0.03;58.74;99085.88;5053145;28;20076;-79
2022/03/07 03:33:06;;;;;;;7.07;2.40;;;;;;;0.00;58.79;99103.97;5052848;28;20053;-79
2022/03/07 03:35:36;;;;;;;6.10;2.42;;;;;;;-0.10;58.40;99083.94;5053360;28;20052;-79
2022/03/07 03:38:10;;;;;;;7.05;2.58;;;;;;;0.01;58.95;99100.56;5053045;28;20060;-78
2022/03/07 03:40:37;;;;;;;6.97;2.70;;;;;;;-0.05;58.77;99100.34;5053682;28;20057;-79
2022/03/07 03:43:04;;;;;;;7.18;2.72;;;;;;;0.01;58.65;99095.44;5053957;28;20048;-79
2022/03/07 03:45:31;;;;;;;4.63;2.55;;;;;;;-0.05;58.69;99085.81;5051846;28;20569;-79
2022/03/07 03:48:00;;;;;;;7.97;2.50;;;;;;;-0.01;58.74;99089.38;5052944;28;20059;-79
2022/03/07 03:50:27;;;;;;;6.07;2.78;;;;;;;0.08;58.93;99096.50;5053714;28;20057;-79
2022/03/07 03:52:54;;;;;;;4.32;2.45;;;;;;;0.07;58.82;99095.63;5051891;28;20052;-79
2022/03/07 03:55:21;;;;;;;4.75;2.63;;;;;;;0.01;58.78;99069.75;5046345;28;20093;-78
2022/03/07 03:57:49;;;;;;;6.43;2.47;;;;;;;-0.07;58.73;99056.66;5052724;28;20408;-79
2022/03/07 04:00:18;;;;;;;6.10;2.58;;;;;;;0.09;58.83;99086.28;5041454;28;20057;-78
2022/03/07 04:02:46;;;;;;;5.20;2.30;;;;;;;0.12;58.79;99091.50;5034415;28;20057;-79
2022/03/07 04:05:15;;;;;;;5.88;2.40;;;;;;;0.12;58.51;99086.38;5033272;28;20057;-79
2022/03/07 04:07:43;;;;;;;4.32;2.42;;;;;;;0.09;58.78;99088.84;5033095;28;20068;-78
2022/03/07 04:10:13;;;;;;;5.38;2.35;;;;;;;0.24;58.57;99096.19;5032153;28;20045;-79
2022/03/07 04:12:42;;;;;;;5.38;2.47;;;;;;;0.28;58.26;99095.47;5032932;28;20406;-78
2022/03/07 04:15:11;;;;;;;3.17;1.85;;;;;;;0.18;58.22;99067.72;5032533;28;20077;-78
2022/03/07 04:17:39;;;;;;;5.32;2.22;;;;;;;0.28;58.43;99097.13;5032572;28;20425;-78
2022/03/07 04:20:07;;;;;;;5.50;2.20;;;;;;;0.20;58.52;99076.38;5032759;28;20049;-79
2022/03/07 04:22:35;;;;;;;4.82;1.92;;;;;;;0.18;58.70;99099.41;5032550;28;20057;-77
2022/03/07 04:25:03;;;;;;;4.60;2.28;;;;;;;0.24;58.75;99098.75;5064642;28;20061;-79
2022/03/07 04:27:30;;;;;;;3.90;2.38;;;;;;;0.30;58.84;99104.09;5033418;28;20512;-78
2022/03/07 04:29:57;;;;;;;6.03;3.05;;;;;;;0.35;58.50;99105.09;5031632;28;20426;-77
2022/03/07 04:32:24;;;;;;;3.75;2.05;;;;;;;0.38;58.37;99106.91;5034758;28;20081;-79
2022/03/07 04:34:51;;;;;;;7.60;2.35;;;;;;;0.41;58.36;99101.88;5041395;28;20084;-78
2022/03/07 04:37:18;;;;;;;4.03;2.10;;;;;;;0.49;58.22;99096.94;5044104;28;20053;-79
2022/03/07 04:39:45;;;;;;;7.45;2.33;;;;;;;0.53;58.35;99099.66;5033600;28;20053;-80
2022/03/07 04:42:12;;;;;;;4.72;2.47;;;;;;;0.55;58.13;99092.00;5031999;28;20057;-79
2022/03/07 04:44:39;;;;;;;4.90;2.28;;;;;;;0.57;58.18;99101.50;5044273;28;20060;-79
2022/03/07 04:47:06;;;;;;;4.55;2.13;;;;;;;0.56;58.47;99106.59;5034667;28;20061;-78
2022/03/07 04:49:33;;;;;;;5.80;1.83;;;;;;;0.60;58.39;99099.06;5038159;28;20056;-78
2022/03/07 04:52:00;;;;;;;3.95;2.13;;;;;;;0.10;57.77;99020.38;5053870;28;20095;-79
2022/03/07 04:54:33;;;;;;;7.95;2.50;;;;;;;0.42;58.17;99065.06;5071502;28;20053;-77
2022/03/07 04:56:59;;;;;;;3.78;1.90;;;;;;;0.57;58.21;99090.34;5072842;28;20053;-78
2022/03/07 04:59:26;;;;;;;4.68;1.98;;;;;;;0.61;58.24;99111.06;5070080;28;20052;-77
2022/03/07 05:01:53;;;;;;;4.00;1.90;;;;;;;0.70;57.90;99101.88;5071231;28;20062;-80
2022/03/07 05:04:20;;;;;;;2.90;1.80;;;;;;;0.73;57.48;99099.41;5060684;28;20056;-80
2022/03/07 05:06:47;;;;;;;6.68;2.00;;;;;;;0.75;57.58;99093.50;5052062;28;20061;-80
2022/03/07 05:09:14;;;;;;;5.60;2.63;;;;;;;0.74;57.46;99088.31;5051933;28;20045;-79
2022/03/07 05:11:41;;;;;;;4.45;1.95;;;;;;;0.85;57.28;99101.47;5051458;28;20049;-79
2022/03/07 05:14:08;;;;;;;4.50;2.40;;;;;;;0.88;57.27;99104.13;5050883;28;20156;-79
2022/03/07 05:16:34;;;;;;;4.25;2.63;;;;;;;0.93;57.45;99090.59;5051346;28;20527;-79
2022/03/07 05:19:02;;;;;;;5.22;2.50;;;;;;;0.97;57.59;99100.16;5050879;28;20049;-78
2022/03/07 05:21:29;;;;;;;5.18;2.50;;;;;;;1.02;57.53;99098.56;5052363;28;20503;-80
2022/03/07 05:23:56;;;;;;;4.28;2.40;;;;;;;0.98;56.97;99078.72;5054762;28;20509;-81
2022/03/07 05:26:23;;;;;;;4.97;2.15;;;;;;;1.01;57.02;99085.66;5054765;28;20103;-78
2022/03/07 05:28:50;;;;;;;7.07;2.40;;;;;;;1.07;56.90;99079.84;5054846;28;20059;-81
2022/03/07 05:31:21;;;;;;;3.28;2.25;;;;;;;0.82;56.86;99031.13;5053321;28;20049;-79
2022/03/07 05:33:48;;;;;;;6.70;2.35;;;;;;;0.93;56.80;99059.75;5053432;28;20044;-80
2022/03/07 05:36:15;;;;;;;5.70;2.45;;;;;;;1.11;56.96;99100.53;5051419;28;20084;-79
2022/03/07 05:38:42;;;;;;;4.15;2.40;;;;;;;1.08;56.86;99095.31;5055759;28;20068;-81
2022/03/07 05:41:09;;;;;;;6.55;2.20;;;;;;;1.17;56.75;99090.44;5055905;28;20118;-80
2022/03/07 05:43:36;;;;;;;7.50;2.20;;;;;;;1.31;56.18;99090.84;5055544;28;20060;-82
2022/03/07 05:46:03;;;;;;;3.97;2.22;;;;;;;1.36;56.79;99114.13;5053602;28;20093;-79
2022/03/07 05:48:30;;;;;;;4.75;2.47;;;;;;;1.38;56.48;99108.19;5051832;28;20048;-81
2022/03/07 05:50:57;;;;;;;3.72;1.92;;;;;;;1.33;56.21;99098.56;5040834;28;20647;-81
2022/03/07 05:53:24;;;;;;;5.18;2.08;;;;;;;1.35;56.17;99091.78;5035273;28;20081;-80
2022/03/07 05:55:52;;;;;;;6.47;2.20;;;;;;;1.46;56.43;99104.94;5043983;28;20099;-81
2022/03/07 05:58:19;;;;;;;6.93;2.30;;;;;;;1.35;56.39;99077.19;5034979;28;20080;-81
2022/03/07 06:00:46;;;;;;;6.30;2.90;;;;;;;1.53;55.94;99100.00;5035356;28;20077;-82
2022/03/07 06:03:14;;;;;;;5.15;2.28;;;;;;;1.58;56.07;99084.69;5050642;28;20410;-79
2022/03/07 06:05:41;;;;;;;4.07;2.33;;;;;;;1.79;55.44;99105.84;5054399;28;20045;-79
2022/03/07 06:08:08;;;;;;;5.82;2.78;;;;;;;1.72;55.49;99098.81;5053984;28;20075;-80
2022/03/07 06:10:34;;;;;;;6.05;2.65;;;;;;;1.81;55.70;99114.50;5054165;28;20060;-79
2022/03/07 06:13:02;;;;;;;4.43;2.88;;;;;;;1.92;54.94;99113.91;5054432;28;20052;-79
2022/03/07 06:15:29;;;;;;;6.72;3.55;;;;;;;1.93;55.26;99123.38;5054415;28;20089;-79
2022/03/07 06:17:59;;;;;;;10.10;4.00;;;;;;;1.88;55.24;99114.66;5054265;28;20519;-79
2022/03/07 06:24:03;;;;;;;9.15;4.00;;;;;;;1.76;55.14;99071.41;5045275;28;20061;-84
2022/03/07 06:26:30;;;;;;;9.82;4.10;;;;;;;2.25;54.85;99122.47;5053970;28;20088;-83
2022/03/07 06:28:57;;;;;;;10.60;3.47;;;;;;;2.27;54.68;99112.22;5053794;28;20535;-79
2022/03/07 06:31:24;;;;;;;5.88;3.55;;;;;;;2.41;54.42;99130.56;5053017;28;20052;-80
2022/03/07 06:33:51;;;;;;;7.43;3.42;;;;;;;2.55;54.16;99126.63;5046513;28;20072;-84
2022/03/07 06:36:18;;;;;;;8.60;3.70;;;;;;;2.57;53.93;99122.38;5034490;28;20053;-79
2022/03/07 06:38:45;;;;;;;8.38;3.22;;;;;;;2.53;53.94;99112.81;5033870;28;20061;-79
2022/03/07 06:41:12;;;;;;;7.47;3.45;;;;;;;2.54;53.74;99117.16;5034507;28;20053;-80
2022/03/07 06:43:39;;;;;;;8.18;3.45;;;;;;;2.47;53.94;99125.56;5035101;28;20061;-86
2022/03/07 06:46:06;;;;;;;6.78;3.58;;;;;;;2.36;54.12;99103.81;5038008;28;20060;-83
2022/03/07 06:48:35;;;;;;;9.75;3.75;;;;;;;2.38;54.21;99107.31;5035970;28;20111;-84
2022/03/07 06:51:02;;;;;;;13.55;3.67;;;;;;;2.18;53.88;99079.34;5052767;28;20432;-84
2022/03/07 06:53:29;;;;;;;10.85;3.70;;;;;;;2.50;53.91;99117.94;5037640;28;20049;-87
2022/03/07 06:55:56;;;;;;;7.88;3.42;;;;;;;2.34;53.83;99101.19;5052693;28;20139;-84
2022/03/07 06:58:23;;;;;;;8.70;3.65;;;;;;;2.59;53.93;99130.16;5032924;28;20079;-84
2022/03/07 07:00:50;;;;;;;9.85;3.58;;;;;;;2.73;53.59;99115.00;5029634;28;20060;-86
2022/03/07 07:03:17;;;;;;;10.43;3.72;;;;;;;2.87;53.01;99131.66;5037341;28;20520;-85
2022/03/07 07:05:45;;;;;;;9.43;4.18;;;;;;;2.99;52.60;99139.69;5033091;28;20506;-85
2022/03/07 07:08:12;;;;;;;10.90;4.40;;;;;;;2.98;52.47;99137.94;5034154;28;20049;-84
2022/03/07 07:10:42;;;;;;;8.43;3.83;;;;;;;3.04;52.64;99122.59;5033137;28;20081;-85
2022/03/07 07:13:14;;;;;;;13.27;4.57;;;;;;;3.14;52.62;99138.25;5032455;28;20053;-86
2022/03/07 07:15:44;;;;;;;10.43;3.90;;;;;;;3.07;52.35;99114.03;5034009;28;20095;-83
2022/03/07 07:18:11;;;;;;;12.32;5.47;;;;;;;3.07;52.25;99102.00;5035011;28;20050;-82
2022/03/07 07:20:38;;;;;;;25.52;9.57;;;;;;;3.21;52.05;99107.47;5039289;28;20068;-87
2022/03/07 07:23:05;;;;;;;13.80;5.50;;;;;;;3.41;51.69;99125.06;5037217;28;20053;-85
2022/03/07 07:25:32;;;;;;;7.80;4.20;;;;;;;3.51;51.44;99128.69;5033849;28;20583;-87
2022/03/07 07:27:59;;;;;;;15.35;4.10;;;;;;;3.51;51.15;99115.78;5034068;28;20053;-85
2022/03/07 07:30:27;;;;;;;12.38;4.40;;;;;;;3.57;51.24;99114.22;5034563;28;20076;-86
2022/03/07 07:32:54;;;;;;;11.07;3.90;;;;;;;3.48;51.13;99076.16;5034079;28;20164;-89
2022/03/07 07:35:22;;;;;;;17.73;6.32;;;;;;;3.47;51.18;99074.41;5016809;28;20518;-86
2022/03/07 07:37:50;;;;;;;13.57;4.93;;;;;;;3.52;51.06;99069.34;5033372;28;20057;-87
2022/03/07 07:40:17;;;;;;;5.97;3.63;;;;;;;3.70;50.82;99099.81;5016872;28;20049;-85
2022/03/07 07:42:44;;;;;;;10.88;4.55;;;;;;;3.75;50.68;99123.16;5017176;28;20136;-82
2022/03/07 07:45:12;;;;;;;9.18;4.05;;;;;;;3.68;50.83;99102.38;5016963;28;20046;-84
2022/03/07 07:47:39;;;;;;;9.32;4.05;;;;;;;3.77;50.28;99118.88;5016661;28;20087;-88
2022/03/07 07:50:07;;;;;;;8.82;3.53;;;;;;;3.84;50.77;99124.19;5035310;28;20049;-86
2022/03/07 07:52:35;;;;;;;13.23;4.20;;;;;;;3.73;50.32;99104.16;5032410;28;20061;-83
2022/03/07 07:55:06;;;;;;;10.35;3.78;;;;;;;3.81;50.01;99087.09;5033735;28;20045;-83
2022/03/07 07:57:34;;;;;;;;;;;;;;;3.94;50.67;99114.91;5033051;28;20148;-83
2022/03/07 08:00:03;;;;;;;8.63;3.95;;;;;;;4.06;49.97;99094.41;5033496;28;19925;-83
2022/03/07 08:02:46;;;;;;;10.38;3.72;;;;;;;4.39;49.91;99115.63;5033396;28;20425;-81
2022/03/07 08:05:13;;;;;;;9.75;3.78;;;;;;;4.42;49.38;99113.97;5048938;28;20044;-78
2022/03/07 08:07:41;;;;;;;10.18;4.05;;;;;;;4.44;49.37;99117.47;5056032;28;20476;-85
2022/03/07 08:10:14;;;;;;;8.98;3.60;;;;;;;4.32;48.88;99075.88;5042024;28;20053;-79
2022/03/07 08:12:41;;;;;;;9.07;3.63;;;;;;;4.38;49.22;99112.19;5032154;28;20140;-78
2022/03/07 08:15:12;;;;;;;8.30;3.92;;;;;;;4.28;48.87;99074.09;5043031;28;20056;-83
2022/03/07 08:17:46;;;;;;;10.00;3.75;;;;;;;4.65;48.76;99111.75;5051085;28;20052;-77
2022/03/07 08:20:13;;;;;;;9.80;3.92;;;;;;;4.89;48.80;99100.88;5032467;28;20057;-78
2022/03/07 08:22:43;;;;;;;11.93;4.13;;;;;;;4.96;47.96;99093.22;5037292;28;20080;-81
2022/03/07 08:25:11;;;;;;;9.70;4.13;;;;;;;4.97;47.66;99092.34;5041819;28;20049;-82
2022/03/07 08:27:38;;;;;;;10.35;3.65;;;;;;;4.84;48.14;99070.59;5035181;28;20057;-84
2022/03/07 08:30:09;;;;;;;12.20;3.83;;;;;;;5.04;47.41;99108.00;5053489;28;20135;-84
2022/03/07 08:32:36;;;;;;;7.30;3.80;;;;;;;4.83;47.67;99079.22;5051740;28;20497;-89
2022/03/07 08:35:05;;;;;;;9.95;3.42;;;;;;;4.76;48.16;99101.56;5052426;28;20501;-84
2022/03/07 08:37:40;;;;;;;9.40;3.30;;;;;;;4.60;47.97;99104.75;5048634;28;20554;-83
2022/03/07 08:40:08;;;;;;;8.90;3.63;;;;;;;4.28;48.47;99080.16;5045723;28;20049;-78
2022/03/07 08:42:36;;;;;;;10.82;3.90;;;;;;;4.19;48.77;99116.16;5073417;28;20084;-80
2022/03/07 08:45:04;;;;;;;12.13;4.20;;;;;;;3.90;48.70;99075.19;5043258;28;20497;-77
2022/03/07 08:47:32;;;;;;;11.65;5.10;;;;;;;3.94;49.08;99101.97;5047566;28;20057;-79
2022/03/07 08:50:00;;;;;;;25.27;10.75;;;;;;;3.90;49.20;99101.03;5039813;28;20085;-81
2022/03/07 08:52:28;;;;;;;26.90;10.10;;;;;;;4.20;48.62;99114.47;5032745;28;20061;-80
2022/03/07 08:54:55;;;;;;;16.27;6.47;;;;;;;4.50;48.49;99116.69;5032539;28;20476;-79
2022/03/07 08:57:22;;;;;;;18.88;7.30;;;;;;;4.66;47.75;99112.63;5035817;28;20042;-79
2022/03/07 08:59:49;;;;;;;12.38;4.15;;;;;;;4.56;47.61;99090.94;5036249;28;20053;-78
2022/03/07 09:02:16;;;;;;;25.08;8.75;;;;;;;4.46;47.39;99084.72;5034330;28;20064;-78
2022/03/07 09:04:43;;;;;;;13.88;5.10;;;;;;;4.35;47.67;99068.19;5035899;28;20148;-79
2022/03/07 09:07:10;;;;;;;7.22;3.33;;;;;;;4.43;46.86;99099.31;5034581;28;20054;-78
2022/03/07 09:09:37;;;;;;;13.32;3.30;;;;;;;4.23;47.83;99114.53;5033725;28;20497;-78
2022/03/07 09:12:05;;;;;;;5.65;2.60;;;;;;;4.26;47.13;99112.00;5034944;28;20103;-78
2022/03/07 09:14:32;;;;;;;5.55;2.60;;;;;;;4.43;46.86;99114.84;5033137;28;20402;-77
2022/03/07 09:16:59;;;;;;;4.55;2.40;;;;;;;4.66;46.55;99112.63;5035038;28;20056;-80
2022/03/07 09:19:26;;;;;;;3.00;2.22;;;;;;;4.69;46.65;99108.38;5033554;28;20115;-80
2022/03/07 09:21:53;;;;;;;9.57;3.15;;;;;;;5.01;45.90;99117.44;5034507;28;20053;-81
2022/03/07 09:24:20;;;;;;;8.27;3.05;;;;;;;5.12;45.54;99103.78;5034727;28;20049;-79
2022/03/07 09:26:47;;;;;;;8.48;2.80;;;;;;;5.21;45.10;99091.81;5034862;28;20080;-79
2022/03/07 09:29:14;;;;;;;5.43;2.53;;;;;;;5.33;45.21;99110.97;5034468;28;20085;-79
2022/03/07 09:31:42;;;;;;;9.32;3.50;;;;;;;5.28;44.97;99101.41;5034428;28;20052;-78
2022/03/07 09:34:10;;;;;;;7.82;3.33;;;;;;;5.40;44.79;99101.56;5034860;28;20053;-85
2022/03/07 09:36:37;;;;;;;6.18;3.20;;;;;;;5.49;44.04;99064.53;5034785;28;20540;-83
2022/03/07 09:39:05;;;;;;;11.35;2.80;;;;;;;5.65;43.82;99074.19;5034694;28;20099;-83
2022/03/07 09:41:32;;;;;;;6.72;2.83;;;;;;;5.67;44.04;99092.34;5040206;28;20049;-84
2022/03/07 09:43:59;;;;;;;7.10;3.00;;;;;;;5.56;44.43;99074.09;5036524;28;20064;-85
2022/03/07 09:46:27;;;;;;;7.68;3.67;;;;;;;5.70;44.06;99087.19;5056804;28;20052;-85
2022/03/07 09:48:54;;;;;;;14.05;4.47;;;;;;;5.79;43.75;99091.63;5055782;28;20055;-86
2022/03/07 09:51:22;;;;;;;9.02;4.57;;;;;;;6.04;43.89;99090.16;5057976;28;20080;-86
2022/03/07 09:53:49;;;;;;;13.13;4.20;;;;;;;6.25;43.02;99098.13;5051729;28;20075;-85
2022/03/07 09:56:16;;;;;;;8.73;4.03;;;;;;;6.29;42.24;99099.03;5051499;28;20049;-84
2022/03/07 09:58:45;;;;;;;5.85;2.50;;;;;;;6.22;41.89;99033.28;5045458;28;20079;-85
2022/03/07 10:01:18;;;;;;;10.93;4.35;;;;;;;6.83;41.37;99097.69;5055719;28;20048;-84
2022/03/07 10:03:49;;;;;;;7.43;3.50;;;;;;;6.49;41.39;99044.69;5054642;28;20072;-84
2022/03/07 10:06:24;;;;;;;12.13;5.15;;;;;;;6.96;41.03;99093.44;5023083;28;20083;-85
2022/03/07 10:08:53;;;;;;;8.82;3.40;;;;;;;7.16;40.75;99089.22;5045361;28;20049;-79
2022/03/07 10:11:21;;;;;;;7.72;3.20;;;;;;;6.90;41.19;99093.41;5045027;28;20044;-83
2022/03/07 10:13:50;;;;;;;8.75;3.10;;;;;;;6.20;42.14;99066.09;5054337;28;20060;-83
2022/03/07 10:16:20;;;;;;;5.93;3.78;;;;;;;5.98;42.53;99084.91;5054250;28;20143;-84
2022/03/07 10:18:48;;;;;;;;;;;;;;;5.45;43.96;99086.94;5040319;28;20049;-83
2022/03/07 10:21:21;;;;;;;8.52;3.45;;;;;;;5.17;44.58;99061.56;5070028;28;19928;-81
2022/03/07 10:23:56;;;;;;;4.50;2.88;;;;;;;5.27;44.91;99086.69;5054719;28;20552;-83
2022/03/07 10:26:24;;;;;;;9.63;3.10;;;;;;;5.30;44.10;99099.69;5037505;28;20041;-83
2022/03/07 10:28:56;;;;;;;17.90;6.15;;;;;;;5.43;44.43;99096.41;5057340;28;20055;-83
2022/03/07 10:31:46;;;;;;;11.88;5.60;;;;;;;5.62;43.92;99099.22;5059145;28;20053;-82
2022/03/07 10:34:13;;;;;;;8.05;4.07;;;;;;;5.50;43.81;99077.47;5054534;28;20135;-81
2022/03/07 10:36:43;;;;;;;12.02;5.38;;;;;;;5.33;44.19;99081.59;5055175;28;20098;-81
2022/03/07 10:39:12;;;;;;;9.35;4.72;;;;;;;5.23;44.62;99098.75;5054455;28;20072;-84
2022/03/07 10:41:45;;;;;;;13.20;4.40;;;;;;;5.34;44.30;99098.88;5053640;28;20053;-81
2022/03/07 10:44:39;;;;;;;8.13;4.60;;;;;;;5.43;44.55;99100.72;5053327;28;20414;-84
2022/03/07 10:47:09;;;;;;;6.45;3.47;;;;;;;5.28;44.41;99099.66;5054332;28;20477;-81
2022/03/07 10:49:58;;;;;;;7.95;3.03;;;;;;;5.15;45.00;99084.84;5054858;28;20228;-85
2022/03/07 10:52:44;;;;;;;7.65;3.42;;;;;;;5.03;45.18;99093.28;5053815;28;20072;-89
2022/03/07 10:55:13;;;;;;;8.57;3.88;;;;;;;5.04;44.97;99073.47;5055997;28;20501;-89
2022/03/07 10:57:42;;;;;;;10.00;3.78;;;;;;;5.22;44.49;99088.38;5037240;28;20402;-87
2022/03/07 11:00:18;;;;;;;7.15;3.35;;;;;;;5.20;44.52;99082.28;5037872;28;20045;-87
2022/03/07 11:02:55;;;;;;;6.40;3.08;;;;;;;5.16;44.79;99089.16;5053919;28;20045;-87
2022/03/07 11:05:25;;;;;;;4.43;3.30;;;;;;;5.37;44.73;99078.19;5035604;28;20147;-85
2022/03/07 11:07:52;;;;;;;10.87;3.77;;;;;;;5.69;44.12;99096.69;5052891;28;20048;-79
2022/03/07 11:10:19;;;;;;;11.07;3.40;;;;;;;5.83;43.57;99080.41;5053223;28;20061;-86
2022/03/07 11:12:50;;;;;;;5.43;2.95;;;;;;;5.93;43.81;99057.19;5052603;28;20401;-84
2022/03/07 11:15:20;;;;;;;13.27;4.05;;;;;;;6.10;43.54;99087.63;5036108;28;20065;-86
2022/03/07 11:17:47;;;;;;;12.93;5.53;;;;;;;5.60;43.09;99031.81;5055334;28;20061;-85
2022/03/07 11:20:17;;;;;;;8.77;5.20;;;;;;;6.29;42.73;99089.50;5054341;28;20049;-83
2022/03/07 11:22:44;;;;;;;12.85;5.88;;;;;;;6.38;42.44;99080.06;5054715;28;20055;-84
2022/03/07 11:25:16;;;;;;;8.20;3.60;;;;;;;6.26;43.04;99099.88;5035483;28;20060;-79
2022/03/07 11:27:46;;;;;;;7.57;4.03;;;;;;;5.92;43.96;99080.50;5052674;28;20139;-78
2022/03/07 11:30:13;;;;;;;;;;;;;;;5.78;44.02;99092.47;5053579;28;20045;-78
2022/03/07 11:32:56;;;;;;;10.45;4.00;;;;;;;5.16;44.46;99010.63;5053722;28;19925;-79
2022/03/07 11:35:32;;;;;;;8.00;3.38;;;;;;;5.71;44.61;99107.94;5054748;28;20063;-77
2022/03/07 11:38:13;;;;;;;9.25;4.38;;;;;;;5.70;44.72;99102.72;5057675;28;20048;-80
2022/03/07 11:41:39;;;;;;;9.45;4.47;;;;;;;5.51;44.55;99094.78;5051643;28;20087;-79
2022/03/07 11:44:22;;;;;;;9.50;4.40;;;;;;;5.45;44.28;99088.66;5046790;28;20080;-80
2022/03/07 11:46:54;;;;;;;14.90;5.75;;;;;;;5.75;44.27;99121.81;5051869;28;20451;-80
2022/03/07 11:49:27;;;;;;;10.02;3.85;;;;;;;5.91;43.77;99102.09;5052086;28;20527;-81
2022/03/07 11:56:25;;;;;;;;;;;;;;;5.60;44.44;99111.28;5052141;28;20468;-81
2022/03/07 11:58:56;;;;;;;9.40;4.70;;;;;;;5.74;44.49;99102.81;5053730;28;19929;-84